sensor_id;sensor_type;location;lat;lon;timestamp;P1;durP1;ratioP1;P2;durP2;ratioP2
21472;SDS011;10898;48.072;11.682;2022-09-13T00:01:02;7.13;;;3.50;;
21472;SDS011;10898;48.072;11.682;2022-09-13T00:03:04;4.28;;;3.30;;
21472;SDS011;10898;48.072;11.682;2022-09-13T00:05:06;5.32;;;3.05;;
21472;SDS011;10898;48.072;11.682;2022-09-13T00:07:08;4.95;;;3.33;;
21472;SDS011;10898;48.072;11.682;2022-09-13T00:09:10;3.88;;;3.15;;
21472;SDS011;10898;48.072;11.682;2022-09-13T00:11:33;3.00;;;2.70;;
21472;SDS011;10898;48.072;11.682;2022-09-13T00:13:33;3.45;;;3.15;;
21472;SDS011;10898;48.072;11.682;2022-09-13T00:15:35;3.70;;;3.38;;
21472;SDS011;10898;48.072;11.682;2022-09-13T00:17:37;3.15;;;2.92;;
21472;SDS011;10898;48.072;11.682;2022-09-13T00:19:39;3.80;;;2.95;;
21472;SDS011;10898;48.072;11.682;2022-09-13T00:21:41;7.18;;;3.28;;
21472;SDS011;10898;48.072;11.682;2022-09-13T00:23:44;3.00;;;2.77;;
21472;SDS011;10898;48.072;11.682;2022-09-13T00:25:47;4.00;;;3.22;;
21472;SDS011;10898;48.072;11.682;2022-09-13T00:27:48;3.58;;;3.28;;
21472;SDS011;10898;48.072;11.682;2022-09-13T00:29:50;2.97;;;2.77;;
21472;SDS011;10898;48.072;11.682;2022-09-13T00:31:52;3.53;;;3.15;;
21472;SDS011;10898;48.072;11.682;2022-09-13T00:33:55;5.23;;;2.80;;
21472;SDS011;10898;48.072;11.682;2022-09-13T00:36:09;3.28;;;2.60;;
21472;SDS011;10898;48.072;11.682;2022-09-13T00:38:11;3.95;;;3.35;;
21472;SDS011;10898;48.072;11.682;2022-09-13T00:40:13;3.28;;;2.97;;
21472;SDS011;10898;48.072;11.682;2022-09-13T00:42:15;3.45;;;3.15;;
21472;SDS011;10898;48.072;11.682;2022-09-13T00:46:57;3.50;;;3.13;;
21472;SDS011;10898;48.072;11.682;2022-09-13T00:49:08;6.88;;;2.90;;
21472;SDS011;10898;48.072;11.682;2022-09-13T00:53:15;3.40;;;2.83;;
21472;SDS011;10898;48.072;11.682;2022-09-13T00:55:28;5.25;;;2.83;;
21472;SDS011;10898;48.072;11.682;2022-09-13T00:57:34;5.03;;;2.85;;
21472;SDS011;10898;48.072;11.682;2022-09-13T00:59:42;5.60;;;2.88;;
21472;SDS011;10898;48.072;11.682;2022-09-13T01:01:52;3.05;;;2.38;;
21472;SDS011;10898;48.072;11.682;2022-09-13T01:03:56;3.08;;;2.78;;
21472;SDS011;10898;48.072;11.682;2022-09-13T01:05:59;4.13;;;2.60;;
21472;SDS011;10898;48.072;11.682;2022-09-13T01:08:11;2.85;;;2.63;;
21472;SDS011;10898;48.072;11.682;2022-09-13T01:10:22;3.60;;;2.70;;
21472;SDS011;10898;48.072;11.682;2022-09-13T01:12:27;4.28;;;2.67;;
21472;SDS011;10898;48.072;11.682;2022-09-13T01:14:49;2.45;;;2.25;;
21472;SDS011;10898;48.072;11.682;2022-09-13T01:16:52;3.00;;;2.55;;
21472;SDS011;10898;48.072;11.682;2022-09-13T01:18:54;3.53;;;2.90;;
21472;SDS011;10898;48.072;11.682;2022-09-13T01:28:17;2.80;;;2.60;;
21472;SDS011;10898;48.072;11.682;2022-09-13T01:30:51;2.55;;;2.35;;
21472;SDS011;10898;48.072;11.682;2022-09-13T01:35:24;3.10;;;2.80;;
21472;SDS011;10898;48.072;11.682;2022-09-13T01:37:45;2.70;;;2.50;;
21472;SDS011;10898;48.072;11.682;2022-09-13T01:42:20;2.65;;;2.45;;
21472;SDS011;10898;48.072;11.682;2022-09-13T01:44:56;3.10;;;2.47;;
21472;SDS011;10898;48.072;11.682;2022-09-13T01:47:23;3.17;;;2.80;;
21472;SDS011;10898;48.072;11.682;2022-09-13T01:51:59;4.63;;;2.40;;
21472;SDS011;10898;48.072;11.682;2022-09-13T01:54:09;2.72;;;2.22;;
21472;SDS011;10898;48.072;11.682;2022-09-13T01:58:45;4.43;;;2.20;;
21472;SDS011;10898;48.072;11.682;2022-09-13T02:03:16;3.05;;;2.60;;
21472;SDS011;10898;48.072;11.682;2022-09-13T02:07:37;3.88;;;2.30;;
21472;SDS011;10898;48.072;11.682;2022-09-13T02:09:43;3.08;;;2.33;;
21472;SDS011;10898;48.072;11.682;2022-09-13T02:11:52;2.55;;;2.10;;
21472;SDS011;10898;48.072;11.682;2022-09-13T02:14:00;2.42;;;2.22;;
21472;SDS011;10898;48.072;11.682;2022-09-13T02:16:28;3.28;;;2.47;;
21472;SDS011;10898;48.072;11.682;2022-09-13T02:18:39;2.40;;;2.20;;
21472;SDS011;10898;48.072;11.682;2022-09-13T02:20:43;2.85;;;2.45;;
21472;SDS011;10898;48.072;11.682;2022-09-13T02:22:49;3.38;;;2.72;;
21472;SDS011;10898;48.072;11.682;2022-09-13T02:24:58;2.88;;;2.50;;
21472;SDS011;10898;48.072;11.682;2022-09-13T02:27:10;4.28;;;2.70;;
21472;SDS011;10898;48.072;11.682;2022-09-13T02:29:16;4.75;;;2.50;;
21472;SDS011;10898;48.072;11.682;2022-09-13T02:31:25;3.95;;;2.45;;
21472;SDS011;10898;48.072;11.682;2022-09-13T02:33:38;2.47;;;2.28;;
21472;SDS011;10898;48.072;11.682;2022-09-13T02:37:55;2.58;;;2.35;;
21472;SDS011;10898;48.072;11.682;2022-09-13T02:40:03;2.70;;;2.45;;
21472;SDS011;10898;48.072;11.682;2022-09-13T02:42:18;3.20;;;2.40;;
21472;SDS011;10898;48.072;11.682;2022-09-13T02:44:37;2.72;;;2.33;;
21472;SDS011;10898;48.072;11.682;2022-09-13T02:49:11;2.17;;;1.98;;
21472;SDS011;10898;48.072;11.682;2022-09-13T02:53:34;4.03;;;2.50;;
21472;SDS011;10898;48.072;11.682;2022-09-13T02:58:20;2.22;;;2.05;;
21472;SDS011;10898;48.072;11.682;2022-09-13T03:00:28;2.85;;;2.30;;
21472;SDS011;10898;48.072;11.682;2022-09-13T03:02:31;5.05;;;2.47;;
21472;SDS011;10898;48.072;11.682;2022-09-13T03:04:35;2.65;;;2.45;;
21472;SDS011;10898;48.072;11.682;2022-09-13T03:06:37;2.53;;;2.10;;
21472;SDS011;10898;48.072;11.682;2022-09-13T03:08:40;3.22;;;1.90;;
21472;SDS011;10898;48.072;11.682;2022-09-13T03:25:33;3.85;;;2.45;;
21472;SDS011;10898;48.072;11.682;2022-09-13T03:30:28;5.68;;;2.00;;
21472;SDS011;10898;48.072;11.682;2022-09-13T03:35:05;8.18;;;2.63;;
21472;SDS011;10898;48.072;11.682;2022-09-13T03:41:49;3.75;;;2.55;;
21472;SDS011;10898;48.072;11.682;2022-09-13T03:43:57;5.45;;;2.80;;
21472;SDS011;10898;48.072;11.682;2022-09-13T03:46:25;2.55;;;2.10;;
21472;SDS011;10898;48.072;11.682;2022-09-13T03:48:39;3.28;;;3.08;;
21472;SDS011;10898;48.072;11.682;2022-09-13T03:50:44;2.65;;;2.25;;
21472;SDS011;10898;48.072;11.682;2022-09-13T03:52:48;3.47;;;2.50;;
21472;SDS011;10898;48.072;11.682;2022-09-13T03:54:56;2.30;;;2.10;;
21472;SDS011;10898;48.072;11.682;2022-09-13T03:57:04;2.17;;;1.90;;
21472;SDS011;10898;48.072;11.682;2022-09-13T03:59:11;2.50;;;2.30;;
21472;SDS011;10898;48.072;11.682;2022-09-13T04:01:14;2.65;;;2.35;;
21472;SDS011;10898;48.072;11.682;2022-09-13T04:03:19;2.35;;;2.10;;
21472;SDS011;10898;48.072;11.682;2022-09-13T04:05:21;4.45;;;2.30;;
21472;SDS011;10898;48.072;11.682;2022-09-13T04:07:23;8.82;;;2.40;;
21472;SDS011;10898;48.072;11.682;2022-09-13T04:09:25;3.25;;;2.40;;
21472;SDS011;10898;48.072;11.682;2022-09-13T04:11:27;2.47;;;2.03;;
21472;SDS011;10898;48.072;11.682;2022-09-13T04:13:32;2.42;;;2.20;;
21472;SDS011;10898;48.072;11.682;2022-09-13T04:15:33;3.28;;;2.33;;
21472;SDS011;10898;48.072;11.682;2022-09-13T04:17:35;2.10;;;2.00;;
21472;SDS011;10898;48.072;11.682;2022-09-13T04:19:37;2.30;;;2.03;;
21472;SDS011;10898;48.072;11.682;2022-09-13T04:21:39;3.15;;;2.28;;
21472;SDS011;10898;48.072;11.682;2022-09-13T04:23:41;4.55;;;2.35;;
21472;SDS011;10898;48.072;11.682;2022-09-13T04:25:43;2.95;;;1.85;;
21472;SDS011;10898;48.072;11.682;2022-09-13T04:27:45;3.05;;;2.20;;
21472;SDS011;10898;48.072;11.682;2022-09-13T04:29:47;2.85;;;2.58;;
21472;SDS011;10898;48.072;11.682;2022-09-13T04:31:50;6.03;;;1.88;;
21472;SDS011;10898;48.072;11.682;2022-09-13T04:33:53;4.40;;;2.30;;
21472;SDS011;10898;48.072;11.682;2022-09-13T04:35:58;4.27;;;2.27;;
21472;SDS011;10898;48.072;11.682;2022-09-13T04:38:00;4.40;;;2.17;;
21472;SDS011;10898;48.072;11.682;2022-09-13T04:40:02;2.95;;;1.80;;
21472;SDS011;10898;48.072;11.682;2022-09-13T04:42:06;4.97;;;1.92;;
21472;SDS011;10898;48.072;11.682;2022-09-13T04:44:10;4.78;;;2.28;;
21472;SDS011;10898;48.072;11.682;2022-09-13T04:46:12;2.53;;;2.33;;
21472;SDS011;10898;48.072;11.682;2022-09-13T04:48:14;2.67;;;2.47;;
21472;SDS011;10898;48.072;11.682;2022-09-13T04:50:16;2.35;;;2.15;;
21472;SDS011;10898;48.072;11.682;2022-09-13T04:52:18;3.88;;;2.03;;
21472;SDS011;10898;48.072;11.682;2022-09-13T04:54:20;4.53;;;2.20;;
21472;SDS011;10898;48.072;11.682;2022-09-13T04:56:23;5.55;;;2.60;;
21472;SDS011;10898;48.072;11.682;2022-09-13T04:58:26;2.30;;;2.10;;
21472;SDS011;10898;48.072;11.682;2022-09-13T05:00:28;2.42;;;2.22;;
21472;SDS011;10898;48.072;11.682;2022-09-13T05:02:31;2.75;;;2.17;;
21472;SDS011;10898;48.072;11.682;2022-09-13T05:04:33;3.40;;;2.20;;
21472;SDS011;10898;48.072;11.682;2022-09-13T05:06:35;3.80;;;2.20;;
21472;SDS011;10898;48.072;11.682;2022-09-13T05:08:37;4.23;;;2.10;;
21472;SDS011;10898;48.072;11.682;2022-09-13T05:10:39;2.90;;;2.30;;
21472;SDS011;10898;48.072;11.682;2022-09-13T05:12:41;4.75;;;2.08;;
21472;SDS011;10898;48.072;11.682;2022-09-13T05:14:43;3.65;;;2.20;;
21472;SDS011;10898;48.072;11.682;2022-09-13T05:16:45;2.50;;;1.65;;
21472;SDS011;10898;48.072;11.682;2022-09-13T05:18:46;2.33;;;2.13;;
21472;SDS011;10898;48.072;11.682;2022-09-13T05:20:49;2.13;;;1.90;;
21472;SDS011;10898;48.072;11.682;2022-09-13T05:22:54;2.78;;;2.05;;
21472;SDS011;10898;48.072;11.682;2022-09-13T05:24:56;2.38;;;2.17;;
21472;SDS011;10898;48.072;11.682;2022-09-13T05:26:57;3.20;;;2.22;;
21472;SDS011;10898;48.072;11.682;2022-09-13T05:28:59;4.30;;;2.10;;
21472;SDS011;10898;48.072;11.682;2022-09-13T05:31:10;2.33;;;2.13;;
21472;SDS011;10898;48.072;11.682;2022-09-13T05:33:17;3.53;;;2.08;;
21472;SDS011;10898;48.072;11.682;2022-09-13T05:35:19;4.15;;;2.15;;
21472;SDS011;10898;48.072;11.682;2022-09-13T05:37:21;2.17;;;1.93;;
21472;SDS011;10898;48.072;11.682;2022-09-13T05:39:23;2.17;;;2.03;;
21472;SDS011;10898;48.072;11.682;2022-09-13T05:41:45;3.30;;;2.00;;
21472;SDS011;10898;48.072;11.682;2022-09-13T05:43:47;1.98;;;1.80;;
21472;SDS011;10898;48.072;11.682;2022-09-13T05:45:48;2.20;;;1.92;;
21472;SDS011;10898;48.072;11.682;2022-09-13T05:47:50;3.53;;;1.93;;
21472;SDS011;10898;48.072;11.682;2022-09-13T05:49:52;2.38;;;2.17;;
21472;SDS011;10898;48.072;11.682;2022-09-13T05:52:13;3.30;;;1.80;;
21472;SDS011;10898;48.072;11.682;2022-09-13T05:54:15;2.03;;;1.83;;
21472;SDS011;10898;48.072;11.682;2022-09-13T05:58:23;2.55;;;2.10;;
21472;SDS011;10898;48.072;11.682;2022-09-13T06:00:24;3.75;;;1.55;;
21472;SDS011;10898;48.072;11.682;2022-09-13T06:02:26;2.10;;;1.90;;
21472;SDS011;10898;48.072;11.682;2022-09-13T06:04:28;3.22;;;2.05;;
21472;SDS011;10898;48.072;11.682;2022-09-13T06:06:30;2.65;;;1.85;;
21472;SDS011;10898;48.072;11.682;2022-09-13T06:08:32;2.10;;;1.90;;
21472;SDS011;10898;48.072;11.682;2022-09-13T06:10:35;4.20;;;1.58;;
21472;SDS011;10898;48.072;11.682;2022-09-13T06:12:36;3.65;;;2.20;;
21472;SDS011;10898;48.072;11.682;2022-09-13T06:14:38;5.32;;;2.20;;
21472;SDS011;10898;48.072;11.682;2022-09-13T06:16:40;1.75;;;1.65;;
21472;SDS011;10898;48.072;11.682;2022-09-13T06:18:42;6.82;;;2.50;;
21472;SDS011;10898;48.072;11.682;2022-09-13T06:20:44;4.50;;;2.08;;
21472;SDS011;10898;48.072;11.682;2022-09-13T06:22:47;2.65;;;2.42;;
21472;SDS011;10898;48.072;11.682;2022-09-13T06:24:49;4.53;;;2.28;;
21472;SDS011;10898;48.072;11.682;2022-09-13T06:26:51;2.33;;;2.00;;
21472;SDS011;10898;48.072;11.682;2022-09-13T06:28:55;4.05;;;1.95;;
21472;SDS011;10898;48.072;11.682;2022-09-13T06:30:58;2.65;;;2.20;;
21472;SDS011;10898;48.072;11.682;2022-09-13T06:33:02;2.63;;;2.42;;
21472;SDS011;10898;48.072;11.682;2022-09-13T06:35:04;5.28;;;1.75;;
21472;SDS011;10898;48.072;11.682;2022-09-13T06:37:07;3.08;;;1.90;;
21472;SDS011;10898;48.072;11.682;2022-09-13T06:39:08;1.75;;;1.65;;
21472;SDS011;10898;48.072;11.682;2022-09-13T06:41:11;2.07;;;1.93;;
21472;SDS011;10898;48.072;11.682;2022-09-13T06:43:20;1.63;;;1.52;;
21472;SDS011;10898;48.072;11.682;2022-09-13T06:45:22;1.60;;;1.45;;
21472;SDS011;10898;48.072;11.682;2022-09-13T06:47:24;3.17;;;1.42;;
21472;SDS011;10898;48.072;11.682;2022-09-13T06:49:26;1.98;;;1.88;;
21472;SDS011;10898;48.072;11.682;2022-09-13T06:51:29;2.55;;;2.20;;
21472;SDS011;10898;48.072;11.682;2022-09-13T06:53:32;4.38;;;2.90;;
21472;SDS011;10898;48.072;11.682;2022-09-13T06:55:36;4.57;;;2.45;;
21472;SDS011;10898;48.072;11.682;2022-09-13T06:57:38;3.38;;;2.15;;
21472;SDS011;10898;48.072;11.682;2022-09-13T06:59:39;3.42;;;1.98;;
21472;SDS011;10898;48.072;11.682;2022-09-13T07:01:41;3.38;;;1.88;;
21472;SDS011;10898;48.072;11.682;2022-09-13T07:03:47;3.53;;;1.70;;
21472;SDS011;10898;48.072;11.682;2022-09-13T07:05:50;3.53;;;1.80;;
21472;SDS011;10898;48.072;11.682;2022-09-13T07:07:52;3.22;;;1.55;;
21472;SDS011;10898;48.072;11.682;2022-09-13T07:09:54;4.30;;;1.63;;
21472;SDS011;10898;48.072;11.682;2022-09-13T07:11:56;3.15;;;1.50;;
21472;SDS011;10898;48.072;11.682;2022-09-13T07:13:58;1.42;;;1.30;;
21472;SDS011;10898;48.072;11.682;2022-09-13T07:16:03;1.83;;;1.55;;
21472;SDS011;10898;48.072;11.682;2022-09-13T07:18:06;1.77;;;1.67;;
21472;SDS011;10898;48.072;11.682;2022-09-13T07:20:08;4.95;;;1.77;;
21472;SDS011;10898;48.072;11.682;2022-09-13T07:22:10;3.50;;;1.60;;
21472;SDS011;10898;48.072;11.682;2022-09-13T07:24:11;3.45;;;1.60;;
21472;SDS011;10898;48.072;11.682;2022-09-13T07:26:13;1.77;;;1.60;;
21472;SDS011;10898;48.072;11.682;2022-09-13T07:28:15;1.73;;;1.42;;
21472;SDS011;10898;48.072;11.682;2022-09-13T07:30:21;3.38;;;1.10;;
21472;SDS011;10898;48.072;11.682;2022-09-13T07:32:24;1.30;;;1.20;;
21472;SDS011;10898;48.072;11.682;2022-09-13T07:34:26;2.83;;;1.55;;
21472;SDS011;10898;48.072;11.682;2022-09-13T07:36:28;3.67;;;1.85;;
21472;SDS011;10898;48.072;11.682;2022-09-13T07:38:32;1.83;;;1.63;;
21472;SDS011;10898;48.072;11.682;2022-09-13T07:40:37;1.83;;;1.20;;
21472;SDS011;10898;48.072;11.682;2022-09-13T07:42:39;2.10;;;1.37;;
21472;SDS011;10898;48.072;11.682;2022-09-13T07:44:41;2.08;;;1.05;;
21472;SDS011;10898;48.072;11.682;2022-09-13T07:46:42;3.60;;;1.42;;
21472;SDS011;10898;48.072;11.682;2022-09-13T07:48:45;1.80;;;1.30;;
21472;SDS011;10898;48.072;11.682;2022-09-13T07:53:18;1.92;;;1.10;;
21472;SDS011;10898;48.072;11.682;2022-09-13T07:55:20;1.27;;;1.08;;
21472;SDS011;10898;48.072;11.682;2022-09-13T07:57:21;1.95;;;1.10;;
21472;SDS011;10898;48.072;11.682;2022-09-13T07:59:23;1.27;;;1.17;;
21472;SDS011;10898;48.072;11.682;2022-09-13T08:03:37;2.00;;;1.00;;
21472;SDS011;10898;48.072;11.682;2022-09-13T08:05:39;1.98;;;1.00;;
21472;SDS011;10898;48.072;11.682;2022-09-13T08:07:42;2.13;;;1.30;;
21472;SDS011;10898;48.072;11.682;2022-09-13T08:09:43;1.35;;;1.10;;
21472;SDS011;10898;48.072;11.682;2022-09-13T08:11:46;1.30;;;1.20;;
21472;SDS011;10898;48.072;11.682;2022-09-13T08:13:52;1.08;;;0.88;;
21472;SDS011;10898;48.072;11.682;2022-09-13T08:15:54;1.77;;;1.10;;
21472;SDS011;10898;48.072;11.682;2022-09-13T08:17:56;1.77;;;1.67;;
21472;SDS011;10898;48.072;11.682;2022-09-13T08:19:58;1.50;;;1.20;;
21472;SDS011;10898;48.072;11.682;2022-09-13T08:22:00;1.35;;;1.25;;
21472;SDS011;10898;48.072;11.682;2022-09-13T08:24:02;2.40;;;1.60;;
21472;SDS011;10898;48.072;11.682;2022-09-13T08:26:07;1.45;;;1.20;;
21472;SDS011;10898;48.072;11.682;2022-09-13T08:28:15;1.52;;;1.13;;
21472;SDS011;10898;48.072;11.682;2022-09-13T08:30:18;1.55;;;1.13;;
21472;SDS011;10898;48.072;11.682;2022-09-13T08:32:20;3.95;;;1.23;;
21472;SDS011;10898;48.072;11.682;2022-09-13T08:34:21;1.00;;;0.90;;
21472;SDS011;10898;48.072;11.682;2022-09-13T08:36:24;1.08;;;0.90;;
21472;SDS011;10898;48.072;11.682;2022-09-13T08:38:27;2.42;;;1.10;;
21472;SDS011;10898;48.072;11.682;2022-09-13T08:40:31;2.80;;;1.25;;
21472;SDS011;10898;48.072;11.682;2022-09-13T08:42:44;1.27;;;1.17;;
21472;SDS011;10898;48.072;11.682;2022-09-13T08:44:54;2.83;;;1.25;;
21472;SDS011;10898;48.072;11.682;2022-09-13T08:49:20;2.65;;;1.13;;
21472;SDS011;10898;48.072;11.682;2022-09-13T08:51:44;3.00;;;0.82;;
21472;SDS011;10898;48.072;11.682;2022-09-13T08:53:48;1.58;;;0.82;;
21472;SDS011;10898;48.072;11.682;2022-09-13T08:58:18;1.23;;;0.80;;
21472;SDS011;10898;48.072;11.682;2022-09-13T09:00:31;1.05;;;0.70;;
21472;SDS011;10898;48.072;11.682;2022-09-13T09:07:18;1.10;;;0.90;;
21472;SDS011;10898;48.072;11.682;2022-09-13T09:09:22;1.67;;;1.00;;
21472;SDS011;10898;48.072;11.682;2022-09-13T09:11:38;1.30;;;0.82;;
21472;SDS011;10898;48.072;11.682;2022-09-13T09:16:00;0.93;;;0.90;;
21472;SDS011;10898;48.072;11.682;2022-09-13T09:18:16;1.33;;;0.88;;
21472;SDS011;10898;48.072;11.682;2022-09-13T09:20:25;1.75;;;1.00;;
21472;SDS011;10898;48.072;11.682;2022-09-13T09:22:35;2.10;;;1.00;;
21472;SDS011;10898;48.072;11.682;2022-09-13T09:24:36;2.15;;;1.00;;
21472;SDS011;10898;48.072;11.682;2022-09-13T09:26:40;2.25;;;0.90;;
21472;SDS011;10898;48.072;11.682;2022-09-13T09:28:42;1.23;;;0.93;;
21472;SDS011;10898;48.072;11.682;2022-09-13T09:31:01;3.13;;;1.20;;
21472;SDS011;10898;48.072;11.682;2022-09-13T09:33:31;1.00;;;1.00;;
21472;SDS011;10898;48.072;11.682;2022-09-13T09:36:04;1.30;;;0.75;;
21472;SDS011;10898;48.072;11.682;2022-09-13T09:40:32;1.70;;;1.00;;
21472;SDS011;10898;48.072;11.682;2022-09-13T09:42:43;1.52;;;1.10;;
21472;SDS011;10898;48.072;11.682;2022-09-13T09:44:51;1.95;;;1.13;;
21472;SDS011;10898;48.072;11.682;2022-09-13T09:47:17;1.90;;;1.10;;
21472;SDS011;10898;48.072;11.682;2022-09-13T09:49:38;1.83;;;1.10;;
21472;SDS011;10898;48.072;11.682;2022-09-13T09:52:03;1.70;;;1.02;;
21472;SDS011;10898;48.072;11.682;2022-09-13T09:54:08;1.95;;;1.00;;
21472;SDS011;10898;48.072;11.682;2022-09-13T09:58:35;2.75;;;1.20;;
21472;SDS011;10898;48.072;11.682;2022-09-13T10:00:49;3.80;;;1.05;;
21472;SDS011;10898;48.072;11.682;2022-09-13T10:02:52;1.95;;;1.02;;
21472;SDS011;10898;48.072;11.682;2022-09-13T10:04:58;1.30;;;1.08;;
21472;SDS011;10898;48.072;11.682;2022-09-13T10:07:07;1.13;;;0.90;;
21472;SDS011;10898;48.072;11.682;2022-09-13T10:09:24;1.55;;;1.27;;
21472;SDS011;10898;48.072;11.682;2022-09-13T10:11:37;2.50;;;1.15;;
21472;SDS011;10898;48.072;11.682;2022-09-13T10:14:00;1.65;;;1.20;;
21472;SDS011;10898;48.072;11.682;2022-09-13T10:16:04;1.58;;;0.93;;
21472;SDS011;10898;48.072;11.682;2022-09-13T10:18:21;2.67;;;1.05;;
21472;SDS011;10898;48.072;11.682;2022-09-13T10:20:57;2.22;;;1.10;;
21472;SDS011;10898;48.072;11.682;2022-09-13T10:25:20;1.00;;;0.70;;
21472;SDS011;10898;48.072;11.682;2022-09-13T10:27:31;0.90;;;0.80;;
21472;SDS011;10898;48.072;11.682;2022-09-13T10:31:38;1.55;;;1.30;;
21472;SDS011;10898;48.072;11.682;2022-09-13T10:35:51;1.63;;;1.17;;
21472;SDS011;10898;48.072;11.682;2022-09-13T10:37:56;1.08;;;0.88;;
21472;SDS011;10898;48.072;11.682;2022-09-13T10:39:59;1.03;;;0.70;;
21472;SDS011;10898;48.072;11.682;2022-09-13T10:42:05;1.52;;;0.70;;
21472;SDS011;10898;48.072;11.682;2022-09-13T10:44:31;0.80;;;0.80;;
21472;SDS011;10898;48.072;11.682;2022-09-13T10:46:35;0.80;;;0.73;;
21472;SDS011;10898;48.072;11.682;2022-09-13T10:48:46;1.63;;;0.80;;
21472;SDS011;10898;48.072;11.682;2022-09-13T10:51:03;1.60;;;0.90;;
21472;SDS011;10898;48.072;11.682;2022-09-13T10:55:42;2.13;;;0.75;;
21472;SDS011;10898;48.072;11.682;2022-09-13T10:57:55;0.88;;;0.85;;
21472;SDS011;10898;48.072;11.682;2022-09-13T11:00:18;1.77;;;0.77;;
21472;SDS011;10898;48.072;11.682;2022-09-13T11:04:55;2.35;;;0.98;;
21472;SDS011;10898;48.072;11.682;2022-09-13T11:10:06;1.58;;;0.80;;
21472;SDS011;10898;48.072;11.682;2022-09-13T11:12:45;0.70;;;0.70;;
21472;SDS011;10898;48.072;11.682;2022-09-13T11:15:02;1.02;;;0.75;;
21472;SDS011;10898;48.072;11.682;2022-09-13T11:17:24;1.98;;;0.90;;
21472;SDS011;10898;48.072;11.682;2022-09-13T11:34:42;0.70;;;0.70;;
21472;SDS011;10898;48.072;11.682;2022-09-13T11:56:30;1.75;;;0.60;;
21472;SDS011;10898;48.072;11.682;2022-09-13T11:58:38;0.77;;;0.70;;
21472;SDS011;10898;48.072;11.682;2022-09-13T12:00:49;0.65;;;0.50;;
21472;SDS011;10898;48.072;11.682;2022-09-13T12:02:58;0.45;;;0.45;;
21472;SDS011;10898;48.072;11.682;2022-09-13T12:05:15;0.73;;;0.50;;
21472;SDS011;10898;48.072;11.682;2022-09-13T12:09:33;1.75;;;0.50;;
21472;SDS011;10898;48.072;11.682;2022-09-13T12:11:40;2.25;;;0.50;;
21472;SDS011;10898;48.072;11.682;2022-09-13T12:13:46;3.80;;;0.60;;
21472;SDS011;10898;48.072;11.682;2022-09-13T12:16:01;0.55;;;0.50;;
21472;SDS011;10898;48.072;11.682;2022-09-13T12:22:31;0.77;;;0.60;;
21472;SDS011;10898;48.072;11.682;2022-09-13T12:24:55;0.63;;;0.63;;
21472;SDS011;10898;48.072;11.682;2022-09-13T12:27:02;1.23;;;0.60;;
21472;SDS011;10898;48.072;11.682;2022-09-13T12:31:21;1.17;;;0.50;;
21472;SDS011;10898;48.072;11.682;2022-09-13T12:33:25;2.83;;;0.50;;
21472;SDS011;10898;48.072;11.682;2022-09-13T12:35:32;1.25;;;0.52;;
21472;SDS011;10898;48.072;11.682;2022-09-13T12:40:19;0.68;;;0.60;;
21472;SDS011;10898;48.072;11.682;2022-09-13T12:45:19;3.55;;;0.60;;
21472;SDS011;10898;48.072;11.682;2022-09-13T12:49:51;2.05;;;0.60;;
21472;SDS011;10898;48.072;11.682;2022-09-13T12:57:07;3.45;;;0.80;;
21472;SDS011;10898;48.072;11.682;2022-09-13T13:02:25;0.75;;;0.40;;
21472;SDS011;10898;48.072;11.682;2022-09-13T13:04:33;0.63;;;0.40;;
21472;SDS011;10898;48.072;11.682;2022-09-13T13:06:38;3.33;;;0.60;;
21472;SDS011;10898;48.072;11.682;2022-09-13T13:08:57;3.55;;;0.82;;
21472;SDS011;10898;48.072;11.682;2022-09-13T13:11:06;2.05;;;0.60;;
21472;SDS011;10898;48.072;11.682;2022-09-13T13:13:18;1.10;;;0.50;;
21472;SDS011;10898;48.072;11.682;2022-09-13T13:19:37;1.05;;;0.68;;
21472;SDS011;10898;48.072;11.682;2022-09-13T13:21:40;2.35;;;0.60;;
21472;SDS011;10898;48.072;11.682;2022-09-13T13:23:41;1.33;;;0.70;;
21472;SDS011;10898;48.072;11.682;2022-09-13T13:25:53;2.40;;;0.60;;
21472;SDS011;10898;48.072;11.682;2022-09-13T13:30:51;1.00;;;0.60;;
21472;SDS011;10898;48.072;11.682;2022-09-13T13:33:03;2.97;;;0.60;;
21472;SDS011;10898;48.072;11.682;2022-09-13T13:35:29;0.95;;;0.95;;
21472;SDS011;10898;48.072;11.682;2022-09-13T13:37:32;0.80;;;0.60;;
21472;SDS011;10898;48.072;11.682;2022-09-13T13:39:40;1.38;;;0.65;;
21472;SDS011;10898;48.072;11.682;2022-09-13T13:41:59;1.98;;;1.58;;
21472;SDS011;10898;48.072;11.682;2022-09-13T13:48:36;0.83;;;0.70;;
21472;SDS011;10898;48.072;11.682;2022-09-13T13:53:18;1.77;;;0.50;;
21472;SDS011;10898;48.072;11.682;2022-09-13T14:02:22;3.08;;;1.25;;
21472;SDS011;10898;48.072;11.682;2022-09-13T14:07:13;3.63;;;2.65;;
21472;SDS011;10898;48.072;11.682;2022-09-13T14:09:27;4.28;;;2.63;;
21472;SDS011;10898;48.072;11.682;2022-09-13T14:16:12;1.40;;;0.60;;
21472;SDS011;10898;48.072;11.682;2022-09-13T14:21:23;1.25;;;0.50;;
21472;SDS011;10898;48.072;11.682;2022-09-13T14:23:30;0.40;;;0.40;;
21472;SDS011;10898;48.072;11.682;2022-09-13T14:25:32;1.67;;;0.50;;
21472;SDS011;10898;48.072;11.682;2022-09-13T14:27:34;1.50;;;0.60;;
21472;SDS011;10898;48.072;11.682;2022-09-13T14:29:37;1.08;;;0.60;;
21472;SDS011;10898;48.072;11.682;2022-09-13T14:31:39;1.65;;;0.60;;
21472;SDS011;10898;48.072;11.682;2022-09-13T14:33:46;1.25;;;0.47;;
21472;SDS011;10898;48.072;11.682;2022-09-13T14:35:55;0.73;;;0.50;;
21472;SDS011;10898;48.072;11.682;2022-09-13T14:38:17;2.45;;;0.70;;
21472;SDS011;10898;48.072;11.682;2022-09-13T14:40:23;0.57;;;0.43;;
21472;SDS011;10898;48.072;11.682;2022-09-13T14:42:36;0.93;;;0.57;;
21472;SDS011;10898;48.072;11.682;2022-09-13T14:44:44;1.27;;;0.50;;
21472;SDS011;10898;48.072;11.682;2022-09-13T14:46:47;0.75;;;0.60;;
21472;SDS011;10898;48.072;11.682;2022-09-13T14:49:02;4.68;;;0.52;;
21472;SDS011;10898;48.072;11.682;2022-09-13T14:51:15;1.02;;;0.52;;
21472;SDS011;10898;48.072;11.682;2022-09-13T14:55:36;1.88;;;0.40;;
21472;SDS011;10898;48.072;11.682;2022-09-13T14:57:55;2.80;;;0.60;;
21472;SDS011;10898;48.072;11.682;2022-09-13T15:00:05;1.83;;;0.70;;
21472;SDS011;10898;48.072;11.682;2022-09-13T15:02:20;2.90;;;0.65;;
21472;SDS011;10898;48.072;11.682;2022-09-13T15:04:32;1.00;;;0.70;;
21472;SDS011;10898;48.072;11.682;2022-09-13T15:06:35;0.70;;;0.68;;
21472;SDS011;10898;48.072;11.682;2022-09-13T15:08:42;2.38;;;0.57;;
21472;SDS011;10898;48.072;11.682;2022-09-13T15:11:01;1.92;;;0.65;;
21472;SDS011;10898;48.072;11.682;2022-09-13T15:13:08;1.88;;;0.40;;
21472;SDS011;10898;48.072;11.682;2022-09-13T15:17:31;1.90;;;0.65;;
21472;SDS011;10898;48.072;11.682;2022-09-13T15:20:03;1.13;;;0.50;;
21472;SDS011;10898;48.072;11.682;2022-09-13T15:24:24;1.27;;;0.60;;
21472;SDS011;10898;48.072;11.682;2022-09-13T15:26:33;0.85;;;0.60;;
21472;SDS011;10898;48.072;11.682;2022-09-13T15:30:49;1.73;;;0.52;;
21472;SDS011;10898;48.072;11.682;2022-09-13T15:35:22;0.60;;;0.60;;
21472;SDS011;10898;48.072;11.682;2022-09-13T15:37:30;4.63;;;0.60;;
21472;SDS011;10898;48.072;11.682;2022-09-13T15:39:44;0.75;;;0.57;;
21472;SDS011;10898;48.072;11.682;2022-09-13T15:41:52;0.65;;;0.60;;
21472;SDS011;10898;48.072;11.682;2022-09-13T15:43:55;3.15;;;0.70;;
21472;SDS011;10898;48.072;11.682;2022-09-13T15:45:58;1.80;;;0.80;;
21472;SDS011;10898;48.072;11.682;2022-09-13T15:48:01;1.15;;;0.68;;
21472;SDS011;10898;48.072;11.682;2022-09-13T15:50:04;2.90;;;0.85;;
21472;SDS011;10898;48.072;11.682;2022-09-13T15:52:07;3.90;;;0.80;;
21472;SDS011;10898;48.072;11.682;2022-09-13T15:54:14;1.08;;;0.98;;